sensor_id;sensor_type;location;lat;lon;timestamp;P1;durP1;ratioP1;P2;durP2;ratioP2
11245;SDS011;59870;50.106;8.580;2023-07-24T00:00:21;4.43;;;4.13;;
11245;SDS011;59870;50.106;8.580;2023-07-24T00:02:49;4.00;;;3.67;;
11245;SDS011;59870;50.106;8.580;2023-07-24T00:05:17;3.83;;;3.63;;
11245;SDS011;59870;50.106;8.580;2023-07-24T00:07:44;4.43;;;4.03;;
11245;SDS011;59870;50.106;8.580;2023-07-24T00:10:11;4.40;;;4.10;;
11245;SDS011;59870;50.106;8.580;2023-07-24T00:12:39;4.27;;;3.97;;
11245;SDS011;59870;50.106;8.580;2023-07-24T00:15:06;4.07;;;3.67;;
11245;SDS011;59870;50.106;8.580;2023-07-24T00:17:34;4.23;;;3.93;;
11245;SDS011;59870;50.106;8.580;2023-07-24T00:20:01;7.20;;;3.63;;
11245;SDS011;59870;50.106;8.580;2023-07-24T00:22:29;4.63;;;4.33;;
11245;SDS011;59870;50.106;8.580;2023-07-24T00:24:57;4.33;;;4.03;;
11245;SDS011;59870;50.106;8.580;2023-07-24T00:27:24;4.23;;;3.93;;
11245;SDS011;59870;50.106;8.580;2023-07-24T00:29:51;4.53;;;4.13;;
11245;SDS011;59870;50.106;8.580;2023-07-24T00:32:20;4.40;;;4.10;;
11245;SDS011;59870;50.106;8.580;2023-07-24T00:34:48;5.10;;;4.60;;
11245;SDS011;59870;50.106;8.580;2023-07-24T00:37:15;4.80;;;4.50;;
11245;SDS011;59870;50.106;8.580;2023-07-24T00:39:43;4.37;;;4.13;;
11245;SDS011;59870;50.106;8.580;2023-07-24T00:42:10;5.13;;;4.63;;
11245;SDS011;59870;50.106;8.580;2023-07-24T00:44:38;3.90;;;3.63;;
11245;SDS011;59870;50.106;8.580;2023-07-24T00:47:05;4.07;;;3.87;;
11245;SDS011;59870;50.106;8.580;2023-07-24T00:49:33;3.70;;;3.50;;
11245;SDS011;59870;50.106;8.580;2023-07-24T00:52:01;3.90;;;3.70;;
11245;SDS011;59870;50.106;8.580;2023-07-24T00:54:29;4.40;;;4.10;;
11245;SDS011;59870;50.106;8.580;2023-07-24T00:56:59;4.53;;;3.37;;
11245;SDS011;59870;50.106;8.580;2023-07-24T00:59:27;3.80;;;3.50;;
11245;SDS011;59870;50.106;8.580;2023-07-24T01:01:55;4.73;;;4.00;;
11245;SDS011;59870;50.106;8.580;2023-07-24T01:04:23;4.10;;;3.90;;
11245;SDS011;59870;50.106;8.580;2023-07-24T01:06:51;4.50;;;4.20;;
11245;SDS011;59870;50.106;8.580;2023-07-24T01:09:18;5.30;;;4.13;;
11245;SDS011;59870;50.106;8.580;2023-07-24T01:11:47;4.43;;;4.20;;
11245;SDS011;59870;50.106;8.580;2023-07-24T01:14:29;4.67;;;4.27;;
11245;SDS011;59870;50.106;8.580;2023-07-24T01:17:04;4.30;;;4.00;;
11245;SDS011;59870;50.106;8.580;2023-07-24T01:19:40;4.63;;;4.10;;
11245;SDS011;59870;50.106;8.580;2023-07-24T01:22:31;4.03;;;3.83;;
11245;SDS011;59870;50.106;8.580;2023-07-24T01:27:34;5.47;;;4.90;;
11245;SDS011;59870;50.106;8.580;2023-07-24T01:30:02;4.30;;;4.10;;
11245;SDS011;59870;50.106;8.580;2023-07-24T01:32:30;5.03;;;4.63;;
11245;SDS011;59870;50.106;8.580;2023-07-24T01:34:57;5.00;;;4.70;;
11245;SDS011;59870;50.106;8.580;2023-07-24T01:37:25;4.50;;;4.20;;
11245;SDS011;59870;50.106;8.580;2023-07-24T01:39:53;4.30;;;4.03;;
11245;SDS011;59870;50.106;8.580;2023-07-24T01:42:24;5.10;;;4.60;;
11245;SDS011;59870;50.106;8.580;2023-07-24T01:44:53;4.50;;;4.10;;
11245;SDS011;59870;50.106;8.580;2023-07-24T01:47:21;4.83;;;4.57;;
11245;SDS011;59870;50.106;8.580;2023-07-24T01:49:49;6.13;;;4.47;;
11245;SDS011;59870;50.106;8.580;2023-07-24T01:52:17;4.70;;;4.27;;
11245;SDS011;59870;50.106;8.580;2023-07-24T01:54:44;4.83;;;4.47;;
11245;SDS011;59870;50.106;8.580;2023-07-24T01:57:13;4.33;;;4.03;;
11245;SDS011;59870;50.106;8.580;2023-07-24T01:59:40;4.37;;;4.17;;
11245;SDS011;59870;50.106;8.580;2023-07-24T02:02:08;5.20;;;4.23;;
11245;SDS011;59870;50.106;8.580;2023-07-24T02:04:35;4.53;;;4.23;;
11245;SDS011;59870;50.106;8.580;2023-07-24T02:07:03;4.77;;;4.47;;
11245;SDS011;59870;50.106;8.580;2023-07-24T02:09:31;5.53;;;3.90;;
11245;SDS011;59870;50.106;8.580;2023-07-24T02:11:58;4.63;;;4.23;;
11245;SDS011;59870;50.106;8.580;2023-07-24T02:14:25;4.63;;;4.33;;
11245;SDS011;59870;50.106;8.580;2023-07-24T02:16:53;4.73;;;4.33;;
11245;SDS011;59870;50.106;8.580;2023-07-24T02:19:21;6.10;;;4.47;;
11245;SDS011;59870;50.106;8.580;2023-07-24T02:21:48;4.10;;;3.90;;
11245;SDS011;59870;50.106;8.580;2023-07-24T02:24:15;4.57;;;4.27;;
11245;SDS011;59870;50.106;8.580;2023-07-24T02:26:43;4.43;;;4.13;;
11245;SDS011;59870;50.106;8.580;2023-07-24T02:29:10;4.90;;;3.80;;
11245;SDS011;59870;50.106;8.580;2023-07-24T02:31:37;4.33;;;4.03;;
11245;SDS011;59870;50.106;8.580;2023-07-24T02:34:05;3.63;;;3.40;;
11245;SDS011;59870;50.106;8.580;2023-07-24T02:36:32;3.87;;;3.60;;
11245;SDS011;59870;50.106;8.580;2023-07-24T02:39:01;3.70;;;3.50;;
11245;SDS011;59870;50.106;8.580;2023-07-24T02:41:29;4.33;;;3.93;;
11245;SDS011;59870;50.106;8.580;2023-07-24T02:43:56;5.10;;;4.00;;
11245;SDS011;59870;50.106;8.580;2023-07-24T02:46:25;4.50;;;4.20;;
11245;SDS011;59870;50.106;8.580;2023-07-24T02:48:53;4.10;;;3.80;;
11245;SDS011;59870;50.106;8.580;2023-07-24T02:51:20;4.50;;;4.10;;
11245;SDS011;59870;50.106;8.580;2023-07-24T02:53:48;3.67;;;3.47;;
11245;SDS011;59870;50.106;8.580;2023-07-24T02:56:19;3.93;;;3.63;;
11245;SDS011;59870;50.106;8.580;2023-07-24T02:58:47;3.97;;;3.67;;
11245;SDS011;59870;50.106;8.580;2023-07-24T03:01:14;4.00;;;3.80;;
11245;SDS011;59870;50.106;8.580;2023-07-24T03:03:43;3.83;;;3.63;;
11245;SDS011;59870;50.106;8.580;2023-07-24T03:06:10;4.40;;;4.00;;
11245;SDS011;59870;50.106;8.580;2023-07-24T03:08:38;4.27;;;3.90;;
11245;SDS011;59870;50.106;8.580;2023-07-24T03:11:05;4.00;;;3.80;;
11245;SDS011;59870;50.106;8.580;2023-07-24T03:13:33;3.63;;;3.43;;
11245;SDS011;59870;50.106;8.580;2023-07-24T03:16:00;3.67;;;3.43;;
11245;SDS011;59870;50.106;8.580;2023-07-24T03:18:28;4.10;;;3.80;;
11245;SDS011;59870;50.106;8.580;2023-07-24T03:20:57;5.10;;;4.70;;
11245;SDS011;59870;50.106;8.580;2023-07-24T03:23:25;5.37;;;4.97;;
11245;SDS011;59870;50.106;8.580;2023-07-24T03:25:53;5.27;;;4.67;;
11245;SDS011;59870;50.106;8.580;2023-07-24T03:28:20;5.00;;;4.70;;
11245;SDS011;59870;50.106;8.580;2023-07-24T03:30:48;5.57;;;5.27;;
11245;SDS011;59870;50.106;8.580;2023-07-24T03:33:16;5.23;;;4.93;;
11245;SDS011;59870;50.106;8.580;2023-07-24T03:35:43;6.30;;;5.70;;
11245;SDS011;59870;50.106;8.580;2023-07-24T03:38:11;5.90;;;5.40;;
11245;SDS011;59870;50.106;8.580;2023-07-24T03:40:39;5.90;;;5.50;;
11245;SDS011;59870;50.106;8.580;2023-07-24T03:43:06;6.20;;;5.70;;
11245;SDS011;59870;50.106;8.580;2023-07-24T03:45:34;6.63;;;5.97;;
11245;SDS011;59870;50.106;8.580;2023-07-24T03:48:01;5.57;;;5.07;;
11245;SDS011;59870;50.106;8.580;2023-07-24T03:50:29;5.60;;;5.27;;
11245;SDS011;59870;50.106;8.580;2023-07-24T03:52:56;5.93;;;5.53;;
11245;SDS011;59870;50.106;8.580;2023-07-24T03:55:24;6.10;;;5.60;;
11245;SDS011;59870;50.106;8.580;2023-07-24T03:57:51;5.37;;;5.03;;
11245;SDS011;59870;50.106;8.580;2023-07-24T04:00:18;5.27;;;4.87;;
11245;SDS011;59870;50.106;8.580;2023-07-24T04:02:46;5.40;;;5.00;;
11245;SDS011;59870;50.106;8.580;2023-07-24T04:05:14;5.50;;;5.00;;
11245;SDS011;59870;50.106;8.580;2023-07-24T04:07:41;4.63;;;4.33;;
11245;SDS011;59870;50.106;8.580;2023-07-24T04:10:09;7.77;;;5.37;;
11245;SDS011;59870;50.106;8.580;2023-07-24T04:12:36;5.50;;;5.10;;
11245;SDS011;59870;50.106;8.580;2023-07-24T04:15:04;7.60;;;6.90;;
11245;SDS011;59870;50.106;8.580;2023-07-24T04:17:31;9.53;;;8.73;;
11245;SDS011;59870;50.106;8.580;2023-07-24T04:19:59;9.77;;;8.00;;
11245;SDS011;59870;50.106;8.580;2023-07-24T04:22:27;7.63;;;7.03;;
11245;SDS011;59870;50.106;8.580;2023-07-24T04:24:54;7.37;;;6.67;;
11245;SDS011;59870;50.106;8.580;2023-07-24T04:27:21;6.43;;;5.97;;
11245;SDS011;59870;50.106;8.580;2023-07-24T04:29:49;7.00;;;6.50;;
11245;SDS011;59870;50.106;8.580;2023-07-24T04:32:16;6.80;;;6.20;;
11245;SDS011;59870;50.106;8.580;2023-07-24T04:34:43;6.33;;;5.93;;
11245;SDS011;59870;50.106;8.580;2023-07-24T04:37:11;8.00;;;6.27;;
11245;SDS011;59870;50.106;8.580;2023-07-24T04:39:39;6.33;;;5.93;;
11245;SDS011;59870;50.106;8.580;2023-07-24T04:42:06;5.73;;;5.20;;
11245;SDS011;59870;50.106;8.580;2023-07-24T04:44:34;5.67;;;5.27;;
11245;SDS011;59870;50.106;8.580;2023-07-24T04:47:02;5.07;;;4.60;;
11245;SDS011;59870;50.106;8.580;2023-07-24T04:49:29;6.27;;;5.10;;
11245;SDS011;59870;50.106;8.580;2023-07-24T04:51:57;5.40;;;5.00;;
11245;SDS011;59870;50.106;8.580;2023-07-24T04:54:28;5.40;;;4.90;;
11245;SDS011;59870;50.106;8.580;2023-07-24T04:56:55;5.60;;;5.20;;
11245;SDS011;59870;50.106;8.580;2023-07-24T04:59:22;5.10;;;4.77;;
11245;SDS011;59870;50.106;8.580;2023-07-24T05:01:50;4.87;;;4.57;;
11245;SDS011;59870;50.106;8.580;2023-07-24T05:04:18;5.50;;;5.00;;
11245;SDS011;59870;50.106;8.580;2023-07-24T05:06:45;5.90;;;5.27;;
11245;SDS011;59870;50.106;8.580;2023-07-24T05:09:13;5.43;;;5.03;;
11245;SDS011;59870;50.106;8.580;2023-07-24T05:11:41;8.20;;;5.27;;
11245;SDS011;59870;50.106;8.580;2023-07-24T05:14:11;5.70;;;5.30;;
11245;SDS011;59870;50.106;8.580;2023-07-24T05:16:39;7.27;;;6.23;;
11245;SDS011;59870;50.106;8.580;2023-07-24T05:19:06;5.93;;;5.37;;
11245;SDS011;59870;50.106;8.580;2023-07-24T05:21:34;6.43;;;5.93;;
11245;SDS011;59870;50.106;8.580;2023-07-24T05:24:03;7.33;;;6.73;;
11245;SDS011;59870;50.106;8.580;2023-07-24T05:26:31;6.60;;;6.10;;
11245;SDS011;59870;50.106;8.580;2023-07-24T05:28:59;7.77;;;7.07;;
11245;SDS011;59870;50.106;8.580;2023-07-24T05:31:26;8.27;;;7.47;;
11245;SDS011;59870;50.106;8.580;2023-07-24T05:33:54;6.20;;;5.70;;
11245;SDS011;59870;50.106;8.580;2023-07-24T05:36:22;6.77;;;6.17;;
11245;SDS011;59870;50.106;8.580;2023-07-24T05:38:51;6.57;;;5.93;;
11245;SDS011;59870;50.106;8.580;2023-07-24T05:41:19;6.10;;;5.50;;
11245;SDS011;59870;50.106;8.580;2023-07-24T05:43:46;5.93;;;5.50;;
11245;SDS011;59870;50.106;8.580;2023-07-24T05:46:14;5.73;;;5.17;;
11245;SDS011;59870;50.106;8.580;2023-07-24T05:48:42;5.50;;;5.07;;
11245;SDS011;59870;50.106;8.580;2023-07-24T05:51:09;5.50;;;5.00;;
11245;SDS011;59870;50.106;8.580;2023-07-24T05:53:36;5.83;;;5.37;;
11245;SDS011;59870;50.106;8.580;2023-07-24T05:56:04;5.33;;;4.87;;
11245;SDS011;59870;50.106;8.580;2023-07-24T05:58:31;6.20;;;5.70;;
11245;SDS011;59870;50.106;8.580;2023-07-24T06:00:58;6.23;;;5.73;;
11245;SDS011;59870;50.106;8.580;2023-07-24T06:03:27;6.30;;;5.70;;
11245;SDS011;59870;50.106;8.580;2023-07-24T06:05:54;6.33;;;5.73;;
11245;SDS011;59870;50.106;8.580;2023-07-24T06:08:23;6.17;;;5.50;;
11245;SDS011;59870;50.106;8.580;2023-07-24T06:10:50;6.63;;;6.03;;
11245;SDS011;59870;50.106;8.580;2023-07-24T06:13:18;5.47;;;5.07;;
11245;SDS011;59870;50.106;8.580;2023-07-24T06:15:47;6.27;;;5.20;;
11245;SDS011;59870;50.106;8.580;2023-07-24T06:18:15;6.10;;;5.67;;
11245;SDS011;59870;50.106;8.580;2023-07-24T06:20:43;6.20;;;5.70;;
11245;SDS011;59870;50.106;8.580;2023-07-24T06:23:10;6.30;;;5.63;;
11245;SDS011;59870;50.106;8.580;2023-07-24T06:25:37;6.07;;;5.67;;
11245;SDS011;59870;50.106;8.580;2023-07-24T06:28:05;6.33;;;5.83;;
11245;SDS011;59870;50.106;8.580;2023-07-24T06:30:32;6.63;;;6.03;;
11245;SDS011;59870;50.106;8.580;2023-07-24T06:32:59;6.17;;;5.70;;
11245;SDS011;59870;50.106;8.580;2023-07-24T06:35:27;5.50;;;5.00;;
11245;SDS011;59870;50.106;8.580;2023-07-24T06:37:55;6.03;;;5.37;;
11245;SDS011;59870;50.106;8.580;2023-07-24T06:40:22;5.57;;;5.17;;
11245;SDS011;59870;50.106;8.580;2023-07-24T06:42:50;6.00;;;5.50;;
11245;SDS011;59870;50.106;8.580;2023-07-24T06:45:17;5.80;;;5.30;;
11245;SDS011;59870;50.106;8.580;2023-07-24T06:47:45;6.13;;;5.27;;
11245;SDS011;59870;50.106;8.580;2023-07-24T06:50:13;6.53;;;4.70;;
11245;SDS011;59870;50.106;8.580;2023-07-24T06:52:43;5.10;;;4.80;;
11245;SDS011;59870;50.106;8.580;2023-07-24T06:55:10;6.80;;;4.73;;
11245;SDS011;59870;50.106;8.580;2023-07-24T06:57:37;4.83;;;4.43;;
11245;SDS011;59870;50.106;8.580;2023-07-24T07:00:05;5.83;;;5.33;;
11245;SDS011;59870;50.106;8.580;2023-07-24T07:02:35;5.20;;;4.70;;
11245;SDS011;59870;50.106;8.580;2023-07-24T07:05:03;5.53;;;4.97;;
11245;SDS011;59870;50.106;8.580;2023-07-24T07:07:32;5.10;;;4.70;;
11245;SDS011;59870;50.106;8.580;2023-07-24T07:09:59;4.10;;;3.73;;
11245;SDS011;59870;50.106;8.580;2023-07-24T07:12:27;4.53;;;4.20;;
11245;SDS011;59870;50.106;8.580;2023-07-24T07:14:56;4.23;;;3.90;;
11245;SDS011;59870;50.106;8.580;2023-07-24T07:17:24;4.43;;;4.03;;
11245;SDS011;59870;50.106;8.580;2023-07-24T07:19:51;3.70;;;3.50;;
11245;SDS011;59870;50.106;8.580;2023-07-24T07:22:19;4.77;;;4.20;;
11245;SDS011;59870;50.106;8.580;2023-07-24T07:24:46;5.70;;;5.30;;
11245;SDS011;59870;50.106;8.580;2023-07-24T07:27:14;4.80;;;4.50;;
11245;SDS011;59870;50.106;8.580;2023-07-24T07:29:44;6.13;;;4.00;;
11245;SDS011;59870;50.106;8.580;2023-07-24T07:32:12;4.77;;;4.47;;
11245;SDS011;59870;50.106;8.580;2023-07-24T07:34:41;4.37;;;4.00;;
11245;SDS011;59870;50.106;8.580;2023-07-24T07:37:08;7.67;;;4.73;;
11245;SDS011;59870;50.106;8.580;2023-07-24T07:39:36;5.07;;;4.67;;
11245;SDS011;59870;50.106;8.580;2023-07-24T07:42:03;4.57;;;4.27;;
11245;SDS011;59870;50.106;8.580;2023-07-24T07:44:43;4.63;;;4.23;;
11245;SDS011;59870;50.106;8.580;2023-07-24T07:47:10;6.80;;;5.10;;
11245;SDS011;59870;50.106;8.580;2023-07-24T07:49:39;4.87;;;4.50;;
11245;SDS011;59870;50.106;8.580;2023-07-24T07:52:07;4.53;;;4.17;;
11245;SDS011;59870;50.106;8.580;2023-07-24T07:54:35;5.73;;;4.40;;
11245;SDS011;59870;50.106;8.580;2023-07-24T07:57:04;5.17;;;4.30;;
11245;SDS011;59870;50.106;8.580;2023-07-24T07:59:32;4.37;;;4.07;;
11245;SDS011;59870;50.106;8.580;2023-07-24T08:02:02;4.53;;;4.10;;
11245;SDS011;59870;50.106;8.580;2023-07-24T08:04:30;4.40;;;4.00;;
11245;SDS011;59870;50.106;8.580;2023-07-24T08:06:58;3.90;;;3.60;;
11245;SDS011;59870;50.106;8.580;2023-07-24T08:09:25;4.67;;;3.87;;
11245;SDS011;59870;50.106;8.580;2023-07-24T08:11:53;5.57;;;4.20;;
11245;SDS011;59870;50.106;8.580;2023-07-24T08:14:20;3.83;;;3.53;;
11245;SDS011;59870;50.106;8.580;2023-07-24T08:16:48;4.00;;;3.70;;
11245;SDS011;59870;50.106;8.580;2023-07-24T08:19:16;4.23;;;3.90;;
11245;SDS011;59870;50.106;8.580;2023-07-24T08:21:44;4.27;;;4.07;;
11245;SDS011;59870;50.106;8.580;2023-07-24T08:24:13;4.80;;;4.30;;
11245;SDS011;59870;50.106;8.580;2023-07-24T08:26:41;4.67;;;4.17;;
11245;SDS011;59870;50.106;8.580;2023-07-24T08:29:08;3.80;;;3.50;;
11245;SDS011;59870;50.106;8.580;2023-07-24T08:31:36;4.87;;;3.77;;
11245;SDS011;59870;50.106;8.580;2023-07-24T08:34:04;4.27;;;3.83;;
11245;SDS011;59870;50.106;8.580;2023-07-24T08:36:31;4.50;;;4.20;;
11245;SDS011;59870;50.106;8.580;2023-07-24T08:38:59;5.13;;;4.37;;
11245;SDS011;59870;50.106;8.580;2023-07-24T08:41:26;4.47;;;4.17;;
11245;SDS011;59870;50.106;8.580;2023-07-24T08:43:54;3.60;;;3.40;;
11245;SDS011;59870;50.106;8.580;2023-07-24T08:46:22;4.13;;;3.83;;
11245;SDS011;59870;50.106;8.580;2023-07-24T08:48:50;4.07;;;3.73;;
11245;SDS011;59870;50.106;8.580;2023-07-24T08:51:19;4.30;;;4.00;;
11245;SDS011;59870;50.106;8.580;2023-07-24T08:53:48;4.40;;;4.10;;
11245;SDS011;59870;50.106;8.580;2023-07-24T08:56:17;5.97;;;3.73;;
11245;SDS011;59870;50.106;8.580;2023-07-24T08:58:44;4.03;;;3.73;;
11245;SDS011;59870;50.106;8.580;2023-07-24T09:01:12;5.77;;;4.40;;
11245;SDS011;59870;50.106;8.580;2023-07-24T09:03:40;4.20;;;3.90;;
11245;SDS011;59870;50.106;8.580;2023-07-24T09:06:08;4.17;;;3.87;;
11245;SDS011;59870;50.106;8.580;2023-07-24T09:08:39;4.30;;;3.90;;
11245;SDS011;59870;50.106;8.580;2023-07-24T09:11:14;4.37;;;4.00;;
11245;SDS011;59870;50.106;8.580;2023-07-24T09:13:43;5.25;;;4.75;;
11245;SDS011;59870;50.106;8.580;2023-07-24T09:16:22;10.18;;;3.60;;
11245;SDS011;59870;50.106;8.580;2023-07-24T09:18:51;5.47;;;4.00;;
11245;SDS011;59870;50.106;8.580;2023-07-24T09:21:27;4.30;;;4.03;;
11245;SDS011;59870;50.106;8.580;2023-07-24T09:23:56;4.30;;;3.87;;
11245;SDS011;59870;50.106;8.580;2023-07-24T09:26:25;4.50;;;4.20;;
11245;SDS011;59870;50.106;8.580;2023-07-24T09:28:54;3.83;;;3.63;;
11245;SDS011;59870;50.106;8.580;2023-07-24T09:31:33;6.33;;;4.00;;
11245;SDS011;59870;50.106;8.580;2023-07-24T09:34:02;6.40;;;3.93;;
11245;SDS011;59870;50.106;8.580;2023-07-24T09:36:37;9.87;;;4.80;;
11245;SDS011;59870;50.106;8.580;2023-07-24T09:39:05;3.73;;;3.47;;
11245;SDS011;59870;50.106;8.580;2023-07-24T09:41:38;3.73;;;3.53;;
11245;SDS011;59870;50.106;8.580;2023-07-24T09:44:07;6.57;;;4.20;;
11245;SDS011;59870;50.106;8.580;2023-07-24T09:46:39;3.70;;;3.40;;
11245;SDS011;59870;50.106;8.580;2023-07-24T09:49:13;5.97;;;4.40;;
11245;SDS011;59870;50.106;8.580;2023-07-24T09:51:44;5.87;;;4.00;;
11245;SDS011;59870;50.106;8.580;2023-07-24T09:54:20;4.87;;;4.37;;
11245;SDS011;59870;50.106;8.580;2023-07-24T09:56:52;4.67;;;3.90;;
11245;SDS011;59870;50.106;8.580;2023-07-24T09:59:41;3.67;;;3.47;;
11245;SDS011;59870;50.106;8.580;2023-07-24T10:02:10;6.43;;;4.20;;
11245;SDS011;59870;50.106;8.580;2023-07-24T10:04:38;4.80;;;4.40;;
11245;SDS011;59870;50.106;8.580;2023-07-24T10:07:07;7.07;;;4.37;;
11245;SDS011;59870;50.106;8.580;2023-07-24T10:09:36;4.50;;;4.10;;
11245;SDS011;59870;50.106;8.580;2023-07-24T10:12:05;7.20;;;5.20;;
11245;SDS011;59870;50.106;8.580;2023-07-24T10:14:33;4.53;;;4.13;;
11245;SDS011;59870;50.106;8.580;2023-07-24T10:17:03;4.40;;;4.10;;
11245;SDS011;59870;50.106;8.580;2023-07-24T10:19:49;5.03;;;4.53;;
11245;SDS011;59870;50.106;8.580;2023-07-24T10:22:20;5.73;;;4.33;;
11245;SDS011;59870;50.106;8.580;2023-07-24T10:24:51;5.30;;;4.90;;
11245;SDS011;59870;50.106;8.580;2023-07-24T10:27:23;5.23;;;4.70;;
11245;SDS011;59870;50.106;8.580;2023-07-24T10:29:58;5.63;;;5.20;;
11245;SDS011;59870;50.106;8.580;2023-07-24T10:32:45;4.83;;;4.43;;
11245;SDS011;59870;50.106;8.580;2023-07-24T10:35:17;8.23;;;5.27;;
11245;SDS011;59870;50.106;8.580;2023-07-24T10:37:48;5.83;;;5.33;;
11245;SDS011;59870;50.106;8.580;2023-07-24T10:40:27;5.67;;;5.17;;
11245;SDS011;59870;50.106;8.580;2023-07-24T10:43:07;6.23;;;5.30;;
11245;SDS011;59870;50.106;8.580;2023-07-24T10:48:16;5.70;;;5.17;;
11245;SDS011;59870;50.106;8.580;2023-07-24T10:50:46;5.50;;;5.00;;
11245;SDS011;59870;50.106;8.580;2023-07-24T10:53:20;5.35;;;4.93;;
11245;SDS011;59870;50.106;8.580;2023-07-24T10:55:50;4.83;;;4.37;;
11245;SDS011;59870;50.106;8.580;2023-07-24T10:58:19;5.63;;;4.93;;
11245;SDS011;59870;50.106;8.580;2023-07-24T11:00:46;5.80;;;5.30;;
11245;SDS011;59870;50.106;8.580;2023-07-24T11:03:14;15.73;;;5.60;;
11245;SDS011;59870;50.106;8.580;2023-07-24T11:05:44;5.33;;;4.80;;
11245;SDS011;59870;50.106;8.580;2023-07-24T11:08:14;4.55;;;4.22;;
11245;SDS011;59870;50.106;8.580;2023-07-24T11:10:53;4.67;;;4.37;;
11245;SDS011;59870;50.106;8.580;2023-07-24T11:13:26;5.00;;;4.50;;
11245;SDS011;59870;50.106;8.580;2023-07-24T11:16:06;5.50;;;4.27;;
11245;SDS011;59870;50.106;8.580;2023-07-24T11:18:44;5.20;;;4.90;;
11245;SDS011;59870;50.106;8.580;2023-07-24T11:21:22;4.87;;;4.53;;
11245;SDS011;59870;50.106;8.580;2023-07-24T11:23:54;5.00;;;4.50;;
11245;SDS011;59870;50.106;8.580;2023-07-24T11:26:23;4.70;;;4.30;;
11245;SDS011;59870;50.106;8.580;2023-07-24T11:28:52;4.70;;;4.40;;
11245;SDS011;59870;50.106;8.580;2023-07-24T11:31:20;5.30;;;4.80;;
11245;SDS011;59870;50.106;8.580;2023-07-24T11:33:49;4.73;;;4.40;;
11245;SDS011;59870;50.106;8.580;2023-07-24T11:36:19;5.03;;;4.37;;
11245;SDS011;59870;50.106;8.580;2023-07-24T11:38:47;5.22;;;4.68;;
11245;SDS011;59870;50.106;8.580;2023-07-24T11:41:16;5.82;;;5.20;;
11245;SDS011;59870;50.106;8.580;2023-07-24T11:43:49;4.90;;;4.60;;
11245;SDS011;59870;50.106;8.580;2023-07-24T11:46:27;5.13;;;4.83;;
11245;SDS011;59870;50.106;8.580;2023-07-24T11:48:56;5.00;;;4.50;;
11245;SDS011;59870;50.106;8.580;2023-07-24T11:51:25;5.70;;;5.30;;
11245;SDS011;59870;50.106;8.580;2023-07-24T11:54:05;4.90;;;4.57;;
11245;SDS011;59870;50.106;8.580;2023-07-24T11:56:34;5.67;;;5.17;;
11245;SDS011;59870;50.106;8.580;2023-07-24T11:59:09;5.40;;;5.10;;
11245;SDS011;59870;50.106;8.580;2023-07-24T12:01:40;6.17;;;4.83;;
11245;SDS011;59870;50.106;8.580;2023-07-24T12:04:12;6.07;;;4.97;;
11245;SDS011;59870;50.106;8.580;2023-07-24T12:06:40;5.33;;;4.93;;
11245;SDS011;59870;50.106;8.580;2023-07-24T12:09:09;5.10;;;4.60;;
11245;SDS011;59870;50.106;8.580;2023-07-24T12:11:44;4.73;;;4.33;;
11245;SDS011;59870;50.106;8.580;2023-07-24T12:14:13;5.53;;;4.63;;
11245;SDS011;59870;50.106;8.580;2023-07-24T12:16:42;5.10;;;4.80;;
11245;SDS011;59870;50.106;8.580;2023-07-24T12:19:10;4.73;;;4.40;;
11245;SDS011;59870;50.106;8.580;2023-07-24T12:21:37;5.13;;;4.83;;
11245;SDS011;59870;50.106;8.580;2023-07-24T12:24:06;4.90;;;4.60;;
11245;SDS011;59870;50.106;8.580;2023-07-24T12:26:33;4.90;;;4.60;;
11245;SDS011;59870;50.106;8.580;2023-07-24T12:29:01;4.80;;;4.50;;
11245;SDS011;59870;50.106;8.580;2023-07-24T12:31:28;5.00;;;4.70;;
11245;SDS011;59870;50.106;8.580;2023-07-24T12:33:57;4.90;;;4.55;;
11245;SDS011;59870;50.106;8.580;2023-07-24T12:36:25;5.18;;;4.85;;
11245;SDS011;59870;50.106;8.580;2023-07-24T12:38:53;4.47;;;4.18;;
11245;SDS011;59870;50.106;8.580;2023-07-24T12:41:22;5.23;;;4.87;;
11245;SDS011;59870;50.106;8.580;2023-07-24T12:43:50;5.00;;;4.70;;
11245;SDS011;59870;50.106;8.580;2023-07-24T12:46:18;4.97;;;4.67;;
11245;SDS011;59870;50.106;8.580;2023-07-24T12:48:45;5.45;;;5.05;;
11245;SDS011;59870;50.106;8.580;2023-07-24T12:51:13;5.67;;;5.17;;
11245;SDS011;59870;50.106;8.580;2023-07-24T12:53:40;5.90;;;4.97;;
11245;SDS011;59870;50.106;8.580;2023-07-24T12:56:28;4.93;;;4.63;;
11245;SDS011;59870;50.106;8.580;2023-07-24T12:58:56;5.97;;;4.90;;
11245;SDS011;59870;50.106;8.580;2023-07-24T13:01:26;4.72;;;4.32;;
11245;SDS011;59870;50.106;8.580;2023-07-24T13:03:56;4.70;;;4.30;;
11245;SDS011;59870;50.106;8.580;2023-07-24T13:06:24;4.10;;;3.90;;
11245;SDS011;59870;50.106;8.580;2023-07-24T13:08:51;5.20;;;4.60;;
11245;SDS011;59870;50.106;8.580;2023-07-24T13:11:19;7.80;;;4.70;;
11245;SDS011;59870;50.106;8.580;2023-07-24T13:13:46;5.00;;;4.68;;
11245;SDS011;59870;50.106;8.580;2023-07-24T13:16:14;5.33;;;5.00;;
11245;SDS011;59870;50.106;8.580;2023-07-24T13:18:42;4.53;;;4.23;;
11245;SDS011;59870;50.106;8.580;2023-07-24T13:21:14;5.40;;;4.73;;
11245;SDS011;59870;50.106;8.580;2023-07-24T13:23:42;4.67;;;4.30;;
11245;SDS011;59870;50.106;8.580;2023-07-24T13:26:13;5.23;;;4.67;;
11245;SDS011;59870;50.106;8.580;2023-07-24T13:28:41;5.10;;;4.80;;
11245;SDS011;59870;50.106;8.580;2023-07-24T13:31:16;5.37;;;4.97;;
11245;SDS011;59870;50.106;8.580;2023-07-24T13:33:46;5.07;;;4.77;;
11245;SDS011;59870;50.106;8.580;2023-07-24T13:36:14;4.83;;;4.53;;
11245;SDS011;59870;50.106;8.580;2023-07-24T13:38:41;5.00;;;4.70;;
11245;SDS011;59870;50.106;8.580;2023-07-24T13:41:09;5.20;;;4.85;;
11245;SDS011;59870;50.106;8.580;2023-07-24T13:43:36;5.75;;;5.25;;
11245;SDS011;59870;50.106;8.580;2023-07-24T13:46:04;5.35;;;4.95;;
11245;SDS011;59870;50.106;8.580;2023-07-24T13:48:34;5.00;;;4.50;;
11245;SDS011;59870;50.106;8.580;2023-07-24T13:51:02;7.23;;;4.80;;
11245;SDS011;59870;50.106;8.580;2023-07-24T13:53:29;6.15;;;4.95;;
11245;SDS011;59870;50.106;8.580;2023-07-24T13:55:57;4.67;;;4.27;;
11245;SDS011;59870;50.106;8.580;2023-07-24T13:58:24;4.90;;;4.37;;
11245;SDS011;59870;50.106;8.580;2023-07-24T14:00:52;5.45;;;5.03;;
11245;SDS011;59870;50.106;8.580;2023-07-24T14:03:21;5.53;;;5.03;;
11245;SDS011;59870;50.106;8.580;2023-07-24T14:05:55;6.72;;;5.13;;
11245;SDS011;59870;50.106;8.580;2023-07-24T14:08:23;5.33;;;4.87;;
11245;SDS011;59870;50.106;8.580;2023-07-24T14:10:51;4.70;;;4.40;;
11245;SDS011;59870;50.106;8.580;2023-07-24T14:13:19;7.10;;;4.97;;
11245;SDS011;59870;50.106;8.580;2023-07-24T14:15:47;5.40;;;4.90;;
11245;SDS011;59870;50.106;8.580;2023-07-24T14:18:14;5.40;;;4.90;;
11245;SDS011;59870;50.106;8.580;2023-07-24T14:20:42;6.23;;;5.20;;
11245;SDS011;59870;50.106;8.580;2023-07-24T14:23:10;5.30;;;4.90;;
11245;SDS011;59870;50.106;8.580;2023-07-24T14:25:38;5.47;;;5.07;;
11245;SDS011;59870;50.106;8.580;2023-07-24T14:28:07;4.83;;;4.43;;
11245;SDS011;59870;50.106;8.580;2023-07-24T14:30:35;5.87;;;5.47;;
11245;SDS011;59870;50.106;8.580;2023-07-24T14:33:04;5.77;;;5.20;;
11245;SDS011;59870;50.106;8.580;2023-07-24T14:35:32;5.43;;;5.03;;
11245;SDS011;59870;50.106;8.580;2023-07-24T14:38:00;5.40;;;4.90;;
11245;SDS011;59870;50.106;8.580;2023-07-24T14:40:28;5.65;;;4.75;;
11245;SDS011;59870;50.106;8.580;2023-07-24T14:42:55;4.60;;;4.30;;
11245;SDS011;59870;50.106;8.580;2023-07-24T14:45:23;4.60;;;4.30;;
11245;SDS011;59870;50.106;8.580;2023-07-24T14:47:52;4.67;;;4.37;;
11245;SDS011;59870;50.106;8.580;2023-07-24T14:50:20;4.23;;;4.03;;
11245;SDS011;59870;50.106;8.580;2023-07-24T14:52:48;3.90;;;3.70;;
11245;SDS011;59870;50.106;8.580;2023-07-24T14:55:16;4.43;;;4.17;;
11245;SDS011;59870;50.106;8.580;2023-07-24T14:57:43;4.07;;;3.87;;
11245;SDS011;59870;50.106;8.580;2023-07-24T15:00:11;5.03;;;4.45;;
11245;SDS011;59870;50.106;8.580;2023-07-24T15:02:39;4.40;;;4.10;;